sensor_id;sensor_type;location;lat;lon;timestamp;P1;durP1;ratioP1;P2;durP2;ratioP2
5682;SDS011;2864;49.220;8.654;2023-04-01T00:00:44;2.83;;;1.50;;
5682;SDS011;2864;49.220;8.654;2023-04-01T00:03:10;3.83;;;1.60;;
5682;SDS011;2864;49.220;8.654;2023-04-01T00:05:36;2.87;;;1.50;;
5682;SDS011;2864;49.220;8.654;2023-04-01T00:08:03;3.63;;;1.30;;
5682;SDS011;2864;49.220;8.654;2023-04-01T00:10:28;4.57;;;1.50;;
5682;SDS011;2864;49.220;8.654;2023-04-01T00:12:55;5.83;;;1.60;;
5682;SDS011;2864;49.220;8.654;2023-04-01T00:15:20;3.93;;;1.53;;
5682;SDS011;2864;49.220;8.654;2023-04-01T00:17:46;5.23;;;1.70;;
5682;SDS011;2864;49.220;8.654;2023-04-01T00:20:13;2.73;;;1.60;;
5682;SDS011;2864;49.220;8.654;2023-04-01T00:22:39;1.80;;;1.43;;
5682;SDS011;2864;49.220;8.654;2023-04-01T00:25:06;3.70;;;1.50;;
5682;SDS011;2864;49.220;8.654;2023-04-01T00:27:32;4.73;;;1.77;;
5682;SDS011;2864;49.220;8.654;2023-04-01T00:29:58;4.63;;;1.63;;
5682;SDS011;2864;49.220;8.654;2023-04-01T00:32:24;4.73;;;1.87;;
5682;SDS011;2864;49.220;8.654;2023-04-01T00:34:51;3.60;;;1.40;;
5682;SDS011;2864;49.220;8.654;2023-04-01T00:37:18;2.90;;;1.43;;
5682;SDS011;2864;49.220;8.654;2023-04-01T00:39:44;3.20;;;1.43;;
5682;SDS011;2864;49.220;8.654;2023-04-01T00:42:11;3.10;;;1.60;;
5682;SDS011;2864;49.220;8.654;2023-04-01T00:44:37;4.33;;;1.67;;
5682;SDS011;2864;49.220;8.654;2023-04-01T00:47:03;3.37;;;1.63;;
5682;SDS011;2864;49.220;8.654;2023-04-01T00:49:30;4.63;;;1.70;;
5682;SDS011;2864;49.220;8.654;2023-04-01T00:51:57;3.87;;;1.90;;
5682;SDS011;2864;49.220;8.654;2023-04-01T00:54:25;3.60;;;1.60;;
5682;SDS011;2864;49.220;8.654;2023-04-01T00:56:56;3.60;;;1.50;;
5682;SDS011;2864;49.220;8.654;2023-04-01T00:59:28;3.87;;;1.50;;
5682;SDS011;2864;49.220;8.654;2023-04-01T01:01:57;1.87;;;1.60;;
5682;SDS011;2864;49.220;8.654;2023-04-01T01:04:24;2.80;;;1.37;;
5682;SDS011;2864;49.220;8.654;2023-04-01T01:35:47;3.67;;;1.80;;
5682;SDS011;2864;49.220;8.654;2023-04-01T01:38:15;4.23;;;1.50;;
5682;SDS011;2864;49.220;8.654;2023-04-01T01:40:44;3.77;;;1.70;;
5682;SDS011;2864;49.220;8.654;2023-04-01T01:43:12;4.80;;;1.93;;
5682;SDS011;2864;49.220;8.654;2023-04-01T01:45:40;3.70;;;1.47;;
5682;SDS011;2864;49.220;8.654;2023-04-01T01:48:08;4.97;;;1.60;;
5682;SDS011;2864;49.220;8.654;2023-04-01T01:50:35;2.70;;;1.80;;
5682;SDS011;2864;49.220;8.654;2023-04-01T01:53:11;4.40;;;1.57;;
5682;SDS011;2864;49.220;8.654;2023-04-01T01:55:38;1.70;;;1.20;;
5682;SDS011;2864;49.220;8.654;2023-04-01T01:58:19;3.63;;;1.53;;
5682;SDS011;2864;49.220;8.654;2023-04-01T02:01:05;1.77;;;1.23;;
5682;SDS011;2864;49.220;8.654;2023-04-01T02:03:34;5.37;;;1.70;;
5682;SDS011;2864;49.220;8.654;2023-04-01T02:06:02;3.23;;;1.40;;
5682;SDS011;2864;49.220;8.654;2023-04-01T02:08:46;2.57;;;1.60;;
5682;SDS011;2864;49.220;8.654;2023-04-01T02:11:18;2.50;;;1.60;;
5682;SDS011;2864;49.220;8.654;2023-04-01T02:13:52;2.97;;;1.60;;
5682;SDS011;2864;49.220;8.654;2023-04-01T02:16:27;2.23;;;1.43;;
5682;SDS011;2864;49.220;8.654;2023-04-01T02:18:55;4.80;;;1.60;;
5682;SDS011;2864;49.220;8.654;2023-04-01T02:21:22;3.20;;;1.77;;
5682;SDS011;2864;49.220;8.654;2023-04-01T02:23:50;2.00;;;1.37;;
5682;SDS011;2864;49.220;8.654;2023-04-01T02:26:17;3.73;;;1.57;;
5682;SDS011;2864;49.220;8.654;2023-04-01T02:28:44;3.63;;;1.50;;
5682;SDS011;2864;49.220;8.654;2023-04-01T02:31:10;1.40;;;1.30;;
5682;SDS011;2864;49.220;8.654;2023-04-01T02:33:38;3.20;;;1.40;;
5682;SDS011;2864;49.220;8.654;2023-04-01T02:36:04;4.27;;;1.47;;
5682;SDS011;2864;49.220;8.654;2023-04-01T02:38:30;2.30;;;1.33;;
5682;SDS011;2864;49.220;8.654;2023-04-01T02:40:58;2.30;;;1.63;;
5682;SDS011;2864;49.220;8.654;2023-04-01T02:43:24;2.77;;;1.50;;
5682;SDS011;2864;49.220;8.654;2023-04-01T02:45:50;2.20;;;1.30;;
5682;SDS011;2864;49.220;8.654;2023-04-01T02:48:16;1.80;;;1.30;;
5682;SDS011;2864;49.220;8.654;2023-04-01T02:50:42;1.83;;;1.20;;
5682;SDS011;2864;49.220;8.654;2023-04-01T02:53:08;1.47;;;1.20;;
5682;SDS011;2864;49.220;8.654;2023-04-01T02:55:34;2.50;;;1.20;;
5682;SDS011;2864;49.220;8.654;2023-04-01T02:58:00;1.00;;;1.00;;
5682;SDS011;2864;49.220;8.654;2023-04-01T03:00:26;1.30;;;1.20;;
5682;SDS011;2864;49.220;8.654;2023-04-01T03:02:52;1.30;;;1.10;;
5682;SDS011;2864;49.220;8.654;2023-04-01T03:05:19;1.60;;;1.13;;
5682;SDS011;2864;49.220;8.654;2023-04-01T03:07:45;2.17;;;1.13;;
5682;SDS011;2864;49.220;8.654;2023-04-01T03:10:11;1.30;;;1.20;;
5682;SDS011;2864;49.220;8.654;2023-04-01T03:12:37;1.07;;;1.03;;
5682;SDS011;2864;49.220;8.654;2023-04-01T03:15:03;2.37;;;1.10;;
5682;SDS011;2864;49.220;8.654;2023-04-01T03:17:29;1.20;;;1.10;;
5682;SDS011;2864;49.220;8.654;2023-04-01T03:19:55;1.77;;;1.20;;
5682;SDS011;2864;49.220;8.654;2023-04-01T03:22:21;1.20;;;1.10;;
5682;SDS011;2864;49.220;8.654;2023-04-01T03:24:50;2.70;;;1.10;;
5682;SDS011;2864;49.220;8.654;2023-04-01T03:27:16;1.57;;;1.10;;
5682;SDS011;2864;49.220;8.654;2023-04-01T03:29:42;1.83;;;1.23;;
5682;SDS011;2864;49.220;8.654;2023-04-01T03:32:08;4.23;;;1.40;;
5682;SDS011;2864;49.220;8.654;2023-04-01T03:34:34;1.63;;;1.20;;
5682;SDS011;2864;49.220;8.654;2023-04-01T03:37:00;1.30;;;1.20;;
5682;SDS011;2864;49.220;8.654;2023-04-01T03:39:26;1.27;;;1.20;;
5682;SDS011;2864;49.220;8.654;2023-04-01T03:41:52;1.50;;;1.10;;
5682;SDS011;2864;49.220;8.654;2023-04-01T03:44:18;1.40;;;1.17;;
5682;SDS011;2864;49.220;8.654;2023-04-01T03:46:44;2.47;;;1.40;;
5682;SDS011;2864;49.220;8.654;2023-04-01T03:49:10;1.93;;;1.30;;
5682;SDS011;2864;49.220;8.654;2023-04-01T03:51:37;3.20;;;1.50;;
5682;SDS011;2864;49.220;8.654;2023-04-01T03:54:03;4.27;;;1.60;;
5682;SDS011;2864;49.220;8.654;2023-04-01T03:56:30;2.80;;;1.30;;
5682;SDS011;2864;49.220;8.654;2023-04-01T03:58:56;2.90;;;1.40;;
5682;SDS011;2864;49.220;8.654;2023-04-01T04:01:22;3.07;;;1.30;;
5682;SDS011;2864;49.220;8.654;2023-04-01T04:03:48;1.60;;;1.30;;
5682;SDS011;2864;49.220;8.654;2023-04-01T04:06:15;2.10;;;1.40;;
5682;SDS011;2864;49.220;8.654;2023-04-01T04:08:42;2.43;;;1.17;;
5682;SDS011;2864;49.220;8.654;2023-04-01T04:11:09;1.43;;;1.10;;
5682;SDS011;2864;49.220;8.654;2023-04-01T04:13:35;2.57;;;1.30;;
5682;SDS011;2864;49.220;8.654;2023-04-01T04:16:02;1.30;;;1.10;;
5682;SDS011;2864;49.220;8.654;2023-04-01T04:18:28;1.77;;;1.37;;
5682;SDS011;2864;49.220;8.654;2023-04-01T04:20:54;1.80;;;1.50;;
5682;SDS011;2864;49.220;8.654;2023-04-01T04:23:20;1.73;;;1.30;;
5682;SDS011;2864;49.220;8.654;2023-04-01T04:25:56;3.67;;;1.70;;
5682;SDS011;2864;49.220;8.654;2023-04-01T04:28:23;2.20;;;1.37;;
5682;SDS011;2864;49.220;8.654;2023-04-01T04:30:49;4.03;;;1.20;;
5682;SDS011;2864;49.220;8.654;2023-04-01T04:33:15;5.73;;;1.57;;
5682;SDS011;2864;49.220;8.654;2023-04-01T04:35:41;2.30;;;1.37;;
5682;SDS011;2864;49.220;8.654;2023-04-01T04:38:07;2.23;;;1.50;;
5682;SDS011;2864;49.220;8.654;2023-04-01T04:40:32;3.20;;;1.33;;
5682;SDS011;2864;49.220;8.654;2023-04-01T04:42:58;1.60;;;1.47;;
5682;SDS011;2864;49.220;8.654;2023-04-01T04:45:24;1.63;;;1.20;;
5682;SDS011;2864;49.220;8.654;2023-04-01T04:47:50;4.33;;;1.50;;
5682;SDS011;2864;49.220;8.654;2023-04-01T04:50:16;3.27;;;1.50;;
5682;SDS011;2864;49.220;8.654;2023-04-01T04:52:42;2.60;;;1.40;;
5682;SDS011;2864;49.220;8.654;2023-04-01T04:55:08;2.20;;;1.20;;
5682;SDS011;2864;49.220;8.654;2023-04-01T04:57:34;6.57;;;1.73;;
5682;SDS011;2864;49.220;8.654;2023-04-01T05:00:00;1.53;;;1.20;;
5682;SDS011;2864;49.220;8.654;2023-04-01T05:02:26;5.60;;;1.63;;
5682;SDS011;2864;49.220;8.654;2023-04-01T05:04:52;3.70;;;1.60;;
5682;SDS011;2864;49.220;8.654;2023-04-01T05:07:18;1.83;;;1.23;;
5682;SDS011;2864;49.220;8.654;2023-04-01T05:09:44;4.13;;;1.90;;
5682;SDS011;2864;49.220;8.654;2023-04-01T05:12:11;5.97;;;1.60;;
5682;SDS011;2864;49.220;8.654;2023-04-01T05:14:38;3.17;;;1.63;;
5682;SDS011;2864;49.220;8.654;2023-04-01T05:17:07;3.23;;;1.50;;
5682;SDS011;2864;49.220;8.654;2023-04-01T05:19:33;2.17;;;1.37;;
5682;SDS011;2864;49.220;8.654;2023-04-01T05:21:59;3.53;;;1.43;;
5682;SDS011;2864;49.220;8.654;2023-04-01T05:24:25;5.93;;;1.50;;
5682;SDS011;2864;49.220;8.654;2023-04-01T05:26:51;4.40;;;1.77;;
5682;SDS011;2864;49.220;8.654;2023-04-01T05:29:17;3.40;;;1.73;;
5682;SDS011;2864;49.220;8.654;2023-04-01T05:31:43;5.23;;;1.47;;
5682;SDS011;2864;49.220;8.654;2023-04-01T05:34:09;8.37;;;1.40;;
5682;SDS011;2864;49.220;8.654;2023-04-01T05:36:35;5.20;;;1.60;;
5682;SDS011;2864;49.220;8.654;2023-04-01T05:39:01;2.43;;;1.50;;
5682;SDS011;2864;49.220;8.654;2023-04-01T05:41:28;4.37;;;1.63;;
5682;SDS011;2864;49.220;8.654;2023-04-01T05:43:54;5.13;;;1.60;;
5682;SDS011;2864;49.220;8.654;2023-04-01T05:46:20;5.97;;;1.80;;
5682;SDS011;2864;49.220;8.654;2023-04-01T05:48:46;2.00;;;1.53;;
5682;SDS011;2864;49.220;8.654;2023-04-01T05:51:13;4.03;;;1.50;;
5682;SDS011;2864;49.220;8.654;2023-04-01T05:53:39;4.33;;;1.50;;
5682;SDS011;2864;49.220;8.654;2023-04-01T05:56:05;3.93;;;1.43;;
5682;SDS011;2864;49.220;8.654;2023-04-01T05:58:34;3.30;;;1.50;;
5682;SDS011;2864;49.220;8.654;2023-04-01T06:01:03;3.27;;;1.40;;
5682;SDS011;2864;49.220;8.654;2023-04-01T06:03:31;3.83;;;1.50;;
5682;SDS011;2864;49.220;8.654;2023-04-01T06:05:57;3.20;;;1.40;;
5682;SDS011;2864;49.220;8.654;2023-04-01T06:08:23;3.10;;;1.20;;
5682;SDS011;2864;49.220;8.654;2023-04-01T06:13:25;1.50;;;1.40;;
5682;SDS011;2864;49.220;8.654;2023-04-01T06:15:56;2.27;;;1.40;;
5682;SDS011;2864;49.220;8.654;2023-04-01T06:36:32;2.10;;;1.30;;
5682;SDS011;2864;49.220;8.654;2023-04-01T06:41:50;3.17;;;1.30;;
5682;SDS011;2864;49.220;8.654;2023-04-01T06:44:27;3.33;;;1.50;;
5682;SDS011;2864;49.220;8.654;2023-04-01T06:47:19;3.87;;;1.57;;
5682;SDS011;2864;49.220;8.654;2023-04-01T06:54:48;2.50;;;1.60;;
5682;SDS011;2864;49.220;8.654;2023-04-01T06:57:34;2.93;;;1.50;;
5682;SDS011;2864;49.220;8.654;2023-04-01T07:00:04;6.53;;;1.70;;
5682;SDS011;2864;49.220;8.654;2023-04-01T07:02:48;1.53;;;1.20;;
5682;SDS011;2864;49.220;8.654;2023-04-01T07:05:18;1.40;;;1.30;;
5682;SDS011;2864;49.220;8.654;2023-04-01T07:07:49;3.33;;;1.30;;
5682;SDS011;2864;49.220;8.654;2023-04-01T07:10:17;2.33;;;1.83;;
5682;SDS011;2864;49.220;8.654;2023-04-01T07:12:58;2.37;;;1.57;;
5682;SDS011;2864;49.220;8.654;2023-04-01T07:15:30;1.50;;;1.20;;
5682;SDS011;2864;49.220;8.654;2023-04-01T07:18:02;2.23;;;1.20;;
5682;SDS011;2864;49.220;8.654;2023-04-01T07:20:32;2.50;;;1.20;;
5682;SDS011;2864;49.220;8.654;2023-04-01T07:23:02;4.03;;;1.43;;
5682;SDS011;2864;49.220;8.654;2023-04-01T07:25:43;4.47;;;1.30;;
5682;SDS011;2864;49.220;8.654;2023-04-01T07:28:15;4.10;;;1.37;;
5682;SDS011;2864;49.220;8.654;2023-04-01T07:30:48;5.43;;;1.40;;
5682;SDS011;2864;49.220;8.654;2023-04-01T07:33:26;3.17;;;1.30;;
5682;SDS011;2864;49.220;8.654;2023-04-01T07:36:14;3.37;;;1.60;;
5682;SDS011;2864;49.220;8.654;2023-04-01T07:44:04;1.73;;;1.50;;
5682;SDS011;2864;49.220;8.654;2023-04-01T07:49:03;4.50;;;1.43;;
5682;SDS011;2864;49.220;8.654;2023-04-01T07:51:41;3.53;;;1.50;;
5682;SDS011;2864;49.220;8.654;2023-04-01T07:59:39;3.40;;;1.50;;
5682;SDS011;2864;49.220;8.654;2023-04-01T08:15:23;2.70;;;1.43;;
5682;SDS011;2864;49.220;8.654;2023-04-01T08:18:02;5.60;;;1.80;;
5682;SDS011;2864;49.220;8.654;2023-04-01T08:25:42;5.47;;;2.33;;
5682;SDS011;2864;49.220;8.654;2023-04-01T08:28:16;4.00;;;1.57;;
5682;SDS011;2864;49.220;8.654;2023-04-01T08:30:44;4.10;;;1.53;;
5682;SDS011;2864;49.220;8.654;2023-04-01T08:33:25;2.97;;;1.73;;
5682;SDS011;2864;49.220;8.654;2023-04-01T08:38:36;3.83;;;1.60;;
5682;SDS011;2864;49.220;8.654;2023-04-01T08:41:16;4.90;;;1.77;;
5682;SDS011;2864;49.220;8.654;2023-04-01T08:44:10;4.63;;;1.63;;
5682;SDS011;2864;49.220;8.654;2023-04-01T08:57:36;2.27;;;1.37;;
5682;SDS011;2864;49.220;8.654;2023-04-01T09:05:18;4.57;;;1.57;;
5682;SDS011;2864;49.220;8.654;2023-04-01T09:07:55;2.77;;;1.40;;
5682;SDS011;2864;49.220;8.654;2023-04-01T09:10:30;2.93;;;1.50;;
5682;SDS011;2864;49.220;8.654;2023-04-01T09:23:47;3.73;;;1.43;;
5682;SDS011;2864;49.220;8.654;2023-04-01T09:28:57;2.30;;;1.47;;
5682;SDS011;2864;49.220;8.654;2023-04-01T09:34:43;1.47;;;1.20;;
5682;SDS011;2864;49.220;8.654;2023-04-01T09:54:01;1.87;;;1.33;;
5682;SDS011;2864;49.220;8.654;2023-04-01T10:04:44;1.67;;;1.30;;
5682;SDS011;2864;49.220;8.654;2023-04-01T10:07:36;1.53;;;1.43;;
5682;SDS011;2864;49.220;8.654;2023-04-01T10:15:38;1.70;;;1.40;;
5682;SDS011;2864;49.220;8.654;2023-04-01T10:37:31;1.83;;;1.30;;
5682;SDS011;2864;49.220;8.654;2023-04-01T10:42:42;2.63;;;1.80;;
5682;SDS011;2864;49.220;8.654;2023-04-01T10:48:17;2.47;;;1.53;;
5682;SDS011;2864;49.220;8.654;2023-04-01T10:58:29;4.67;;;2.27;;
5682;SDS011;2864;49.220;8.654;2023-04-01T11:27:42;1.60;;;1.50;;
5682;SDS011;2864;49.220;8.654;2023-04-01T11:40:51;1.20;;;1.10;;
5682;SDS011;2864;49.220;8.654;2023-04-01T11:43:29;1.83;;;1.30;;
5682;SDS011;2864;49.220;8.654;2023-04-01T11:49:05;1.70;;;1.20;;
5682;SDS011;2864;49.220;8.654;2023-04-01T11:59:29;1.07;;;1.07;;
5682;SDS011;2864;49.220;8.654;2023-04-01T12:04:54;1.53;;;1.10;;
5682;SDS011;2864;49.220;8.654;2023-04-01T12:07:27;1.43;;;1.20;;
5682;SDS011;2864;49.220;8.654;2023-04-01T12:09:59;1.60;;;1.33;;
5682;SDS011;2864;49.220;8.654;2023-04-01T12:15:48;2.13;;;1.40;;
5682;SDS011;2864;49.220;8.654;2023-04-01T12:21:02;2.37;;;1.60;;
5682;SDS011;2864;49.220;8.654;2023-04-01T12:32:38;2.73;;;1.27;;
5682;SDS011;2864;49.220;8.654;2023-04-01T12:37:11;2.83;;;1.20;;
5682;SDS011;2864;49.220;8.654;2023-04-01T12:42:34;1.57;;;1.40;;
5682;SDS011;2864;49.220;8.654;2023-04-01T12:55:43;1.20;;;1.10;;
5682;SDS011;2864;49.220;8.654;2023-04-01T13:11:02;1.30;;;1.20;;
5682;SDS011;2864;49.220;8.654;2023-04-01T13:16:14;1.77;;;1.30;;
5682;SDS011;2864;49.220;8.654;2023-04-01T13:18:48;1.37;;;1.27;;
5682;SDS011;2864;49.220;8.654;2023-04-01T13:26:25;1.40;;;1.30;;
5682;SDS011;2864;49.220;8.654;2023-04-01T13:28:56;1.40;;;1.30;;
5682;SDS011;2864;49.220;8.654;2023-04-01T13:31:26;1.40;;;1.30;;
5682;SDS011;2864;49.220;8.654;2023-04-01T13:36:36;1.20;;;1.10;;
5682;SDS011;2864;49.220;8.654;2023-04-01T13:39:22;1.30;;;1.20;;
5682;SDS011;2864;49.220;8.654;2023-04-01T14:05:47;1.50;;;1.30;;
5682;SDS011;2864;49.220;8.654;2023-04-01T14:13:51;2.07;;;1.40;;
5682;SDS011;2864;49.220;8.654;2023-04-01T14:21:33;2.73;;;1.37;;
5682;SDS011;2864;49.220;8.654;2023-04-01T14:24:09;4.00;;;1.20;;
5682;SDS011;2864;49.220;8.654;2023-04-01T14:40:10;1.30;;;1.20;;
5682;SDS011;2864;49.220;8.654;2023-04-01T14:42:51;3.47;;;1.30;;
5682;SDS011;2864;49.220;8.654;2023-04-01T14:48:25;1.73;;;1.40;;
5682;SDS011;2864;49.220;8.654;2023-04-01T14:51:36;1.90;;;1.37;;
5682;SDS011;2864;49.220;8.654;2023-04-01T14:54:08;1.77;;;1.20;;
5682;SDS011;2864;49.220;8.654;2023-04-01T14:59:04;1.67;;;1.20;;
5682;SDS011;2864;49.220;8.654;2023-04-01T15:06:56;2.77;;;1.23;;
5682;SDS011;2864;49.220;8.654;2023-04-01T15:15:19;3.30;;;1.30;;
5682;SDS011;2864;49.220;8.654;2023-04-01T15:27:48;1.33;;;1.23;;
5682;SDS011;2864;49.220;8.654;2023-04-01T15:32:52;1.37;;;1.20;;
5682;SDS011;2864;49.220;8.654;2023-04-01T15:38:09;1.30;;;1.20;;
5682;SDS011;2864;49.220;8.654;2023-04-01T15:40:49;1.27;;;1.17;;
5682;SDS011;2864;49.220;8.654;2023-04-01T15:43:26;2.43;;;1.40;;
5682;SDS011;2864;49.220;8.654;2023-04-01T15:48:43;1.20;;;1.10;;
5682;SDS011;2864;49.220;8.654;2023-04-01T16:09:21;1.60;;;1.50;;
5682;SDS011;2864;49.220;8.654;2023-04-01T16:12:11;2.80;;;2.00;;
5682;SDS011;2864;49.220;8.654;2023-04-01T16:14:48;1.87;;;1.57;;
5682;SDS011;2864;49.220;8.654;2023-04-01T16:27:42;2.30;;;1.40;;
5682;SDS011;2864;49.220;8.654;2023-04-01T16:33:34;1.40;;;1.30;;
5682;SDS011;2864;49.220;8.654;2023-04-01T16:35:55;2.10;;;1.43;;
5682;SDS011;2864;49.220;8.654;2023-04-01T16:38:25;3.37;;;1.60;;
5682;SDS011;2864;49.220;8.654;2023-04-01T16:51:16;5.33;;;2.23;;
5682;SDS011;2864;49.220;8.654;2023-04-01T16:53:47;3.20;;;1.67;;
5682;SDS011;2864;49.220;8.654;2023-04-01T16:56:20;2.43;;;1.70;;
5682;SDS011;2864;49.220;8.654;2023-04-01T17:01:17;3.30;;;1.57;;
5682;SDS011;2864;49.220;8.654;2023-04-01T17:03:49;2.00;;;1.57;;
5682;SDS011;2864;49.220;8.654;2023-04-01T17:14:24;1.63;;;1.23;;
5682;SDS011;2864;49.220;8.654;2023-04-01T17:19:24;3.07;;;1.50;;
5682;SDS011;2864;49.220;8.654;2023-04-01T17:24:44;4.37;;;1.50;;
5682;SDS011;2864;49.220;8.654;2023-04-01T17:27:16;1.90;;;1.47;;
5682;SDS011;2864;49.220;8.654;2023-04-01T17:30:01;2.23;;;1.60;;
5682;SDS011;2864;49.220;8.654;2023-04-01T17:32:38;2.10;;;1.50;;
5682;SDS011;2864;49.220;8.654;2023-04-01T17:45:28;1.53;;;1.27;;
5682;SDS011;2864;49.220;8.654;2023-04-01T18:00:38;2.20;;;1.40;;
5682;SDS011;2864;49.220;8.654;2023-04-01T18:08:17;2.33;;;1.80;;
5682;SDS011;2864;49.220;8.654;2023-04-01T18:10:55;2.10;;;1.30;;
5682;SDS011;2864;49.220;8.654;2023-04-01T18:16:13;1.37;;;1.27;;
5682;SDS011;2864;49.220;8.654;2023-04-01T18:18:56;1.50;;;1.33;;
5682;SDS011;2864;49.220;8.654;2023-04-01T18:21:32;1.97;;;1.60;;
5682;SDS011;2864;49.220;8.654;2023-04-01T18:24:11;2.20;;;1.57;;
5682;SDS011;2864;49.220;8.654;2023-04-01T18:26:42;2.97;;;1.50;;
5682;SDS011;2864;49.220;8.654;2023-04-01T18:34:43;1.50;;;1.37;;
5682;SDS011;2864;49.220;8.654;2023-04-01T18:37:28;1.50;;;1.40;;
5682;SDS011;2864;49.220;8.654;2023-04-01T18:48:15;1.67;;;1.30;;
5682;SDS011;2864;49.220;8.654;2023-04-01T18:50:43;1.47;;;1.27;;
5682;SDS011;2864;49.220;8.654;2023-04-01T18:55:49;1.70;;;1.53;;
5682;SDS011;2864;49.220;8.654;2023-04-01T18:58:49;1.40;;;1.30;;
5682;SDS011;2864;49.220;8.654;2023-04-01T19:03:45;3.90;;;2.53;;
5682;SDS011;2864;49.220;8.654;2023-04-01T19:06:15;5.20;;;3.30;;
5682;SDS011;2864;49.220;8.654;2023-04-01T19:08:43;6.57;;;3.67;;
5682;SDS011;2864;49.220;8.654;2023-04-01T19:21:26;3.03;;;2.17;;
5682;SDS011;2864;49.220;8.654;2023-04-01T19:24:06;2.00;;;1.77;;
5682;SDS011;2864;49.220;8.654;2023-04-01T19:26:39;2.83;;;1.70;;
5682;SDS011;2864;49.220;8.654;2023-04-01T19:29:10;1.90;;;1.67;;
5682;SDS011;2864;49.220;8.654;2023-04-01T19:34:25;1.63;;;1.50;;
5682;SDS011;2864;49.220;8.654;2023-04-01T19:36:59;3.03;;;1.50;;
5682;SDS011;2864;49.220;8.654;2023-04-01T19:44:29;3.73;;;1.60;;
5682;SDS011;2864;49.220;8.654;2023-04-01T19:46:58;5.37;;;1.40;;
5682;SDS011;2864;49.220;8.654;2023-04-01T20:02:26;3.20;;;1.93;;
5682;SDS011;2864;49.220;8.654;2023-04-01T20:04:53;3.63;;;1.93;;
5682;SDS011;2864;49.220;8.654;2023-04-01T20:07:27;2.30;;;1.97;;
5682;SDS011;2864;49.220;8.654;2023-04-01T20:10:14;4.10;;;2.03;;
5682;SDS011;2864;49.220;8.654;2023-04-01T20:15:27;4.37;;;2.20;;
5682;SDS011;2864;49.220;8.654;2023-04-01T20:17:56;3.27;;;1.93;;
5682;SDS011;2864;49.220;8.654;2023-04-01T20:20:24;4.47;;;2.07;;
5682;SDS011;2864;49.220;8.654;2023-04-01T20:22:57;3.87;;;2.20;;
5682;SDS011;2864;49.220;8.654;2023-04-01T20:25:30;2.33;;;1.80;;
5682;SDS011;2864;49.220;8.654;2023-04-01T20:28:05;4.07;;;2.00;;
5682;SDS011;2864;49.220;8.654;2023-04-01T20:38:08;5.17;;;1.93;;
5682;SDS011;2864;49.220;8.654;2023-04-01T20:40:38;2.50;;;1.87;;
5682;SDS011;2864;49.220;8.654;2023-04-01T20:48:23;3.13;;;2.07;;
5682;SDS011;2864;49.220;8.654;2023-04-01T20:50:50;3.17;;;2.27;;
5682;SDS011;2864;49.220;8.654;2023-04-01T20:53:29;2.53;;;1.70;;
5682;SDS011;2864;49.220;8.654;2023-04-01T21:03:48;3.93;;;1.90;;
5682;SDS011;2864;49.220;8.654;2023-04-01T21:11:46;3.17;;;1.73;;
5682;SDS011;2864;49.220;8.654;2023-04-01T21:14:35;1.90;;;1.53;;
5682;SDS011;2864;49.220;8.654;2023-04-01T21:17:11;2.50;;;1.57;;
5682;SDS011;2864;49.220;8.654;2023-04-01T21:19:54;4.57;;;1.50;;
5682;SDS011;2864;49.220;8.654;2023-04-01T21:27:48;3.57;;;1.80;;
5682;SDS011;2864;49.220;8.654;2023-04-01T21:35:44;3.37;;;1.60;;
5682;SDS011;2864;49.220;8.654;2023-04-01T21:38:24;2.63;;;1.70;;
5682;SDS011;2864;49.220;8.654;2023-04-01T21:40:57;2.47;;;1.33;;
5682;SDS011;2864;49.220;8.654;2023-04-01T21:43:43;3.50;;;1.50;;
5682;SDS011;2864;49.220;8.654;2023-04-01T21:59:52;2.10;;;1.70;;
5682;SDS011;2864;49.220;8.654;2023-04-01T22:02:30;1.87;;;1.33;;
5682;SDS011;2864;49.220;8.654;2023-04-01T22:07:34;2.57;;;1.50;;
5682;SDS011;2864;49.220;8.654;2023-04-01T22:18:03;2.03;;;1.50;;
5682;SDS011;2864;49.220;8.654;2023-04-01T22:20:40;1.90;;;1.50;;
5682;SDS011;2864;49.220;8.654;2023-04-01T22:25:57;3.60;;;1.63;;
5682;SDS011;2864;49.220;8.654;2023-04-01T22:29:00;3.73;;;1.60;;
5682;SDS011;2864;49.220;8.654;2023-04-01T22:31:20;2.63;;;1.70;;
5682;SDS011;2864;49.220;8.654;2023-04-01T22:39:10;4.07;;;2.27;;
5682;SDS011;2864;49.220;8.654;2023-04-01T22:44:19;3.17;;;2.03;;
5682;SDS011;2864;49.220;8.654;2023-04-01T22:51:47;3.30;;;2.07;;
5682;SDS011;2864;49.220;8.654;2023-04-01T22:54:27;3.13;;;1.90;;
5682;SDS011;2864;49.220;8.654;2023-04-01T23:00:04;2.83;;;1.87;;
5682;SDS011;2864;49.220;8.654;2023-04-01T23:02:32;2.13;;;1.83;;
5682;SDS011;2864;49.220;8.654;2023-04-01T23:05:00;2.10;;;1.90;;
5682;SDS011;2864;49.220;8.654;2023-04-01T23:09:53;1.60;;;1.50;;
5682;SDS011;2864;49.220;8.654;2023-04-01T23:12:21;3.00;;;1.70;;
5682;SDS011;2864;49.220;8.654;2023-04-01T23:14:48;1.87;;;1.60;;
5682;SDS011;2864;49.220;8.654;2023-04-01T23:19:59;3.00;;;1.37;;
5682;SDS011;2864;49.220;8.654;2023-04-01T23:27:59;1.63;;;1.50;;
5682;SDS011;2864;49.220;8.654;2023-04-01T23:35:52;3.57;;;1.67;;
5682;SDS011;2864;49.220;8.654;2023-04-01T23:38:19;1.80;;;1.50;;
5682;SDS011;2864;49.220;8.654;2023-04-01T23:40:49;2.67;;;1.60;;
5682;SDS011;2864;49.220;8.654;2023-04-01T23:43:26;6.10;;;1.70;;
5682;SDS011;2864;49.220;8.654;2023-04-01T23:45:54;3.30;;;1.70;;
5682;SDS011;2864;49.220;8.654;2023-04-01T23:48:23;5.10;;;1.83;;
5682;SDS011;2864;49.220;8.654;2023-04-01T23:50:49;3.10;;;1.70;;
5682;SDS011;2864;49.220;8.654;2023-04-01T23:53:17;1.80;;;1.50;;
5682;SDS011;2864;49.220;8.654;2023-04-01T23:55:44;2.17;;;1.70;;
5682;SDS011;2864;49.220;8.654;2023-04-01T23:58:27;1.40;;;1.30;;
